createdAt,value
2018-09-19T00:00:03.557Z,8.40
2018-09-19T00:02:32.224Z,10.47
2018-09-19T00:05:01.019Z,8.20
2018-09-19T00:07:29.777Z,8.50
2018-09-19T00:09:58.373Z,7.33
2018-09-19T00:12:27.093Z,8.83
2018-09-19T00:14:55.702Z,7.93
2018-09-19T00:17:24.332Z,7.93
2018-09-19T00:19:52.944Z,8.27
2018-09-19T00:22:21.603Z,8.73
2018-09-19T00:24:50.273Z,8.60
2018-09-19T00:27:18.875Z,7.00
2018-09-19T00:29:47.670Z,8.73
2018-09-19T00:32:16.313Z,9.67
2018-09-19T00:34:45.051Z,9.13
2018-09-19T00:37:13.776Z,7.90
2018-09-19T00:39:42.445Z,9.17
2018-09-19T00:42:11.070Z,10.37
2018-09-19T00:44:40.056Z,7.77
2018-09-19T00:47:08.725Z,7.80
2018-09-19T00:49:37.459Z,8.93
2018-09-19T00:52:06.160Z,8.17
2018-09-19T00:54:35.024Z,8.07
2018-09-19T00:57:03.849Z,9.83
2018-09-19T00:59:32.553Z,7.67
2018-09-19T01:02:01.325Z,8.33
2018-09-19T01:04:29.992Z,9.60
2018-09-19T01:06:58.645Z,7.70
2018-09-19T01:09:27.344Z,9.47
2018-09-19T01:11:56.039Z,7.57
2018-09-19T01:14:25.380Z,8.40
2018-09-19T01:16:53.980Z,7.07
2018-09-19T01:19:22.622Z,8.67
2018-09-19T01:21:51.308Z,9.73
2018-09-19T01:24:20.099Z,7.03
2018-09-19T01:26:48.864Z,9.03
2018-09-19T01:29:17.493Z,6.83
2018-09-19T01:31:46.192Z,9.47
2018-09-19T01:34:14.796Z,9.40
2018-09-19T01:36:43.985Z,9.30
2018-09-19T01:39:12.998Z,8.23
2018-09-19T01:41:41.578Z,8.13
2018-09-19T01:44:10.325Z,7.63
2018-09-19T01:46:38.953Z,7.90
2018-09-19T01:49:07.783Z,7.50
2018-09-19T01:51:36.464Z,8.60
2018-09-19T01:54:06.089Z,9.60
2018-09-19T01:56:34.708Z,7.67
2018-09-19T01:59:04.157Z,13.17
2018-09-19T02:01:33.601Z,10.23
2018-09-19T02:04:02.461Z,8.03
2018-09-19T02:06:31.353Z,6.97
2018-09-19T02:09:00.213Z,7.30
2018-09-19T02:11:28.836Z,7.17
2018-09-19T02:13:57.516Z,7.87
2018-09-19T02:16:26.257Z,7.90
2018-09-19T02:18:54.945Z,7.40
2018-09-19T02:21:23.738Z,7.50
2018-09-19T02:23:52.396Z,9.97
2018-09-19T02:26:21.102Z,9.03
2018-09-19T02:28:50.401Z,7.60
2018-09-19T02:31:18.992Z,8.63
2018-09-19T02:33:47.593Z,6.77
2018-09-19T02:36:26.385Z,7.07
2018-09-19T02:38:56.879Z,9.83
2018-09-19T02:41:25.533Z,8.60
2018-09-19T02:43:54.158Z,8.83
2018-09-19T02:46:22.773Z,7.43
2018-09-19T02:48:51.425Z,8.60
2018-09-19T02:51:20.027Z,7.33
2018-09-19T02:53:48.935Z,8.13
2018-09-19T02:56:17.554Z,8.07
2018-09-19T02:58:46.339Z,8.40
2018-09-19T03:01:15.099Z,9.23
2018-09-19T03:03:43.712Z,8.40
2018-09-19T03:06:12.363Z,7.17
2018-09-19T03:08:41.016Z,7.77
2018-09-19T03:11:09.696Z,13.60
2018-09-19T03:13:38.429Z,8.20
2018-09-19T03:16:07.222Z,12.60
2018-09-19T03:18:36.010Z,8.00
2018-09-19T03:21:04.612Z,11.13
2018-09-19T03:23:33.444Z,8.17
2018-09-19T03:26:02.047Z,9.30
2018-09-19T03:28:30.750Z,8.90
2018-09-19T03:30:59.385Z,9.63
2018-09-19T03:33:27.993Z,9.80
2018-09-19T03:35:56.594Z,9.43
2018-09-19T03:38:25.233Z,9.87
2018-09-19T03:40:53.868Z,9.93
2018-09-19T03:43:22.612Z,9.20
2018-09-19T03:45:51.309Z,8.87
2018-09-19T03:48:19.914Z,9.10
2018-09-19T03:50:48.507Z,8.63
2018-09-19T03:53:17.205Z,8.13
2018-09-19T03:55:45.876Z,9.83
2018-09-19T03:58:15.285Z,8.40
2018-09-19T04:00:44.155Z,8.53
2018-09-19T04:03:12.786Z,12.07
2018-09-19T04:05:41.380Z,10.13
2018-09-19T04:08:10.102Z,10.43
2018-09-19T04:10:38.731Z,9.33
2018-09-19T04:13:07.377Z,9.80
2018-09-19T04:15:36.143Z,12.13
2018-09-19T04:18:04.807Z,12.57
2018-09-19T04:20:33.449Z,9.53
2018-09-19T04:23:02.033Z,11.40
2018-09-19T04:25:30.804Z,13.43
2018-09-19T04:27:59.406Z,13.47
2018-09-19T04:30:27.997Z,11.33
2018-09-19T04:32:56.632Z,12.10
2018-09-19T04:35:25.328Z,12.00
2018-09-19T04:37:53.920Z,13.17
2018-09-19T04:40:22.530Z,12.20
2018-09-19T04:42:51.143Z,10.80
2018-09-19T04:45:19.993Z,10.53
2018-09-19T04:47:48.752Z,10.50
2018-09-19T04:50:17.436Z,13.60
2018-09-19T04:52:46.944Z,10.07
2018-09-19T04:55:15.868Z,9.90
2018-09-19T04:57:44.497Z,11.87
2018-09-19T05:00:13.281Z,10.33
2018-09-19T05:02:42.667Z,10.87
2018-09-19T05:05:11.283Z,11.53
2018-09-19T05:07:39.884Z,12.63
2018-09-19T05:10:08.598Z,10.30
2018-09-19T05:12:37.192Z,11.27
2018-09-19T05:15:06.525Z,11.77
2018-09-19T05:17:35.128Z,10.97
2018-09-19T05:20:04.109Z,9.73
2018-09-19T05:22:32.749Z,9.07
2018-09-19T05:25:01.431Z,8.93
2018-09-19T05:27:30.042Z,8.23
2018-09-19T05:29:58.688Z,14.87
2018-09-19T05:32:27.339Z,10.37
2018-09-19T05:34:56.066Z,7.47
2018-09-19T05:37:24.672Z,9.13
2018-09-19T05:39:53.265Z,9.30
2018-09-19T05:42:22.263Z,8.30
2018-09-19T05:44:50.904Z,8.33
2018-09-19T05:47:19.574Z,8.30
2018-09-19T05:49:48.999Z,7.33
2018-09-19T05:52:17.796Z,8.10
2018-09-19T05:54:52.205Z,8.13
2018-09-19T05:57:21.165Z,9.10
2018-09-19T05:59:50.513Z,8.40
2018-09-19T06:02:19.171Z,8.80
2018-09-19T06:04:48.306Z,9.47
2018-09-19T06:07:17.708Z,7.60
2018-09-19T06:09:47.356Z,7.62
2018-09-19T06:12:16.595Z,7.35
2018-09-19T06:14:46.284Z,6.50
2018-09-19T06:17:15.609Z,8.50
2018-09-19T06:19:44.891Z,7.95
2018-09-19T06:22:14.089Z,7.42
2018-09-19T06:24:43.330Z,6.72
2018-09-19T06:27:12.750Z,8.45
2018-09-19T06:29:41.960Z,6.25
2018-09-19T06:32:11.214Z,5.83
2018-09-19T06:34:40.463Z,5.53
2018-09-19T06:37:09.843Z,6.75
2018-09-19T06:39:39.646Z,7.72
2018-09-19T06:42:08.868Z,6.62
2018-09-19T06:44:38.133Z,6.55
2018-09-19T06:47:07.334Z,7.20
2018-09-19T06:49:36.544Z,8.03
2018-09-19T06:52:05.882Z,6.00
2018-09-19T06:54:35.209Z,7.62
2018-09-19T06:57:04.386Z,7.50
2018-09-19T06:59:33.577Z,5.72
2018-09-19T07:02:03.079Z,5.85
2018-09-19T07:04:32.247Z,7.03
2018-09-19T07:07:01.580Z,6.25
2018-09-19T07:09:30.791Z,6.12
2018-09-19T07:11:59.961Z,7.67
2018-09-19T07:14:29.160Z,7.47
2018-09-19T07:16:58.404Z,8.45
2018-09-19T07:19:27.560Z,5.72
2018-09-19T07:21:56.751Z,6.33
2018-09-19T07:24:25.980Z,6.30
2018-09-19T07:26:55.358Z,5.78
2018-09-19T07:29:24.828Z,5.92
2018-09-19T07:31:54.001Z,6.47
2018-09-19T07:34:23.283Z,6.75
2018-09-19T07:36:52.448Z,6.80
2018-09-19T07:39:21.810Z,6.40
2018-09-19T07:41:50.979Z,5.62
2018-09-19T07:44:20.198Z,5.97
2018-09-19T07:46:49.369Z,7.72
2018-09-19T07:49:18.634Z,6.20
2018-09-19T07:51:47.850Z,5.87
2018-09-19T07:54:17.137Z,5.62
2018-09-19T07:56:46.390Z,5.40
2018-09-19T07:59:15.624Z,6.50
2018-09-19T08:01:44.800Z,6.85
2018-09-19T08:04:14.051Z,6.15
2018-09-19T08:06:43.592Z,5.53
2018-09-19T08:09:12.604Z,7.00
2018-09-19T08:11:42.352Z,5.17
2018-09-19T08:14:11.482Z,4.67
2018-09-19T08:16:40.955Z,7.22
2018-09-19T08:19:10.191Z,4.85
2018-09-19T08:21:39.385Z,5.30
2018-09-19T08:24:08.590Z,6.60
2018-09-19T08:26:37.786Z,4.60
2018-09-19T08:29:06.994Z,5.93
2018-09-19T08:31:35.915Z,4.80
2018-09-19T08:34:05.097Z,5.10
2018-09-19T08:36:34.358Z,6.08
2018-09-19T08:39:04.142Z,5.85
2018-09-19T08:41:33.544Z,5.72
2018-09-19T08:44:02.786Z,7.72
2018-09-19T08:46:31.942Z,7.85
2018-09-19T08:49:01.433Z,7.78
2018-09-19T08:51:30.604Z,5.83
2018-09-19T08:53:59.796Z,7.70
2018-09-19T08:56:29.150Z,7.22
2018-09-19T08:58:58.336Z,5.40
2018-09-19T09:01:27.580Z,7.00
2018-09-19T09:03:56.760Z,9.88
2018-09-19T09:06:25.946Z,6.12
2018-09-19T09:08:55.235Z,6.55
2018-09-19T09:11:24.435Z,8.65
2018-09-19T09:13:53.648Z,6.17
2018-09-19T09:16:22.905Z,8.08
2018-09-19T09:18:52.096Z,7.22
2018-09-19T09:21:21.335Z,5.97
2018-09-19T09:23:50.508Z,8.03
2018-09-19T09:26:19.736Z,6.80
2018-09-19T09:28:48.920Z,6.85
2018-09-19T09:31:18.154Z,9.08
2018-09-19T09:33:47.484Z,7.28
2018-09-19T09:36:16.670Z,6.87
2018-09-19T09:38:45.915Z,7.17
2018-09-19T09:41:15.108Z,7.58
2018-09-19T09:43:44.281Z,7.97
2018-09-19T09:46:13.453Z,9.98
2018-09-19T09:48:42.686Z,11.00
2018-09-19T09:51:11.939Z,8.58
2018-09-19T09:53:41.217Z,7.22
2018-09-19T09:56:10.556Z,8.50
2018-09-19T09:58:40.003Z,8.90
2018-09-19T10:01:09.307Z,7.20
2018-09-19T10:03:38.720Z,6.70
2018-09-19T10:06:07.904Z,7.62
2018-09-19T10:08:37.135Z,8.03
2018-09-19T10:11:06.967Z,8.73
2018-09-19T10:13:36.232Z,6.87
2018-09-19T10:16:05.416Z,8.03
2018-09-19T10:18:34.584Z,7.12
2018-09-19T10:21:03.873Z,6.83
2018-09-19T10:23:33.141Z,8.28
2018-09-19T10:26:02.414Z,9.50
2018-09-19T10:28:31.720Z,6.17
2018-09-19T10:31:00.872Z,7.72
2018-09-19T10:33:30.066Z,8.05
2018-09-19T10:35:59.258Z,8.60
2018-09-19T10:38:28.422Z,7.03
2018-09-19T10:40:57.601Z,6.37
2018-09-19T10:43:26.774Z,6.03
2018-09-19T10:45:55.983Z,9.55
2018-09-19T10:48:25.147Z,7.60
2018-09-19T10:50:54.324Z,8.25
2018-09-19T10:53:23.484Z,8.03
2018-09-19T10:55:52.692Z,7.12
2018-09-19T10:58:22.028Z,7.62
2018-09-19T11:00:51.201Z,6.33
2018-09-19T11:03:20.456Z,6.40
2018-09-19T11:05:49.658Z,6.28
2018-09-19T11:08:19.525Z,8.63
2018-09-19T11:10:48.752Z,6.20
2018-09-19T11:13:17.987Z,9.23
2018-09-19T11:15:47.152Z,8.30
2018-09-19T11:18:16.328Z,6.92
2018-09-19T11:20:45.556Z,7.30
2018-09-19T11:23:14.896Z,7.42
2018-09-19T11:25:44.060Z,7.47
2018-09-19T11:28:13.395Z,7.40
2018-09-19T11:30:42.598Z,8.28
2018-09-19T11:33:12.382Z,11.08
2018-09-19T11:35:41.632Z,7.83
2018-09-19T11:38:10.896Z,8.40
2018-09-19T11:40:40.728Z,7.87
2018-09-19T11:43:09.977Z,8.40
2018-09-19T11:45:39.216Z,9.48
2018-09-19T11:48:08.481Z,9.95
2018-09-19T11:50:37.703Z,9.50
2018-09-19T11:53:11.053Z,8.05
2018-09-19T11:55:40.235Z,6.15
2018-09-19T11:58:09.596Z,7.17
2018-09-19T12:00:38.852Z,8.05
2018-09-19T12:03:08.073Z,6.70
2018-09-19T12:05:37.295Z,7.00
2018-09-19T12:08:06.955Z,7.45
2018-09-19T12:10:36.529Z,9.43
2018-09-19T12:13:06.128Z,8.23
2018-09-19T12:15:35.967Z,11.85
2018-09-19T12:18:05.227Z,6.95
2018-09-19T12:20:34.393Z,7.17
2018-09-19T12:23:03.622Z,10.38
2018-09-19T12:25:32.842Z,9.45
2018-09-19T12:28:02.033Z,7.25
2018-09-19T12:30:31.248Z,6.28
2018-09-19T12:33:00.864Z,7.22
2018-09-19T12:35:30.093Z,8.48
2018-09-19T12:37:59.357Z,8.95
2018-09-19T12:40:28.700Z,7.97
2018-09-19T12:42:57.965Z,6.35
2018-09-19T12:45:27.136Z,9.03
2018-09-19T12:47:56.384Z,12.05
2018-09-19T12:50:25.581Z,7.80
2018-09-19T12:52:54.758Z,7.60
2018-09-19T12:55:24.068Z,7.03
2018-09-19T12:57:53.273Z,8.83
2018-09-19T13:00:22.660Z,7.45
2018-09-19T13:02:51.858Z,8.18
2018-09-19T13:05:21.089Z,6.90
2018-09-19T13:07:50.318Z,7.28
2018-09-19T13:10:19.525Z,8.38
2018-09-19T13:12:48.703Z,7.10
2018-09-19T13:15:17.892Z,6.97
2018-09-19T13:17:47.295Z,6.03
2018-09-19T13:20:16.504Z,11.15
2018-09-19T13:22:45.678Z,5.70
2018-09-19T13:25:14.993Z,7.58
2018-09-19T13:27:44.173Z,7.40
2018-09-19T13:30:13.425Z,7.25
2018-09-19T13:32:42.668Z,6.35
2018-09-19T13:35:11.845Z,5.92
2018-09-19T13:37:41.058Z,7.62
2018-09-19T13:40:16.264Z,6.33
2018-09-19T13:42:46.014Z,6.35
2018-09-19T13:45:15.249Z,6.35
2018-09-19T13:47:44.424Z,7.58
2018-09-19T13:50:18.698Z,8.13
2018-09-19T13:52:47.867Z,8.35
2018-09-19T13:55:17.065Z,9.03
2018-09-19T13:57:46.277Z,7.40
2018-09-19T14:00:15.483Z,8.00
2018-09-19T14:02:44.700Z,7.58
2018-09-19T14:05:15.179Z,6.80
2018-09-19T14:07:44.483Z,7.90
2018-09-19T14:10:13.693Z,6.62
2018-09-19T14:12:42.911Z,7.10
2018-09-19T14:15:12.157Z,6.08
2018-09-19T14:17:41.397Z,9.38
2018-09-19T14:20:10.624Z,8.75
2018-09-19T14:22:39.928Z,6.33
2018-09-19T14:25:09.449Z,8.13
2018-09-19T14:27:38.690Z,8.13
2018-09-19T14:30:07.934Z,6.62
2018-09-19T14:32:37.137Z,9.03
2018-09-19T14:35:06.321Z,9.48
2018-09-19T14:37:36.552Z,6.95
2018-09-19T14:40:06.108Z,8.68
2018-09-19T14:42:35.572Z,10.80
2018-09-19T14:45:05.483Z,6.58
2018-09-19T14:47:34.715Z,6.05
2018-09-19T14:50:04.220Z,9.55
2018-09-19T14:52:33.394Z,7.95
2018-09-19T14:55:02.630Z,6.62
2018-09-19T14:57:31.807Z,8.23
2018-09-19T15:00:00.999Z,5.80
2018-09-19T15:02:30.196Z,6.58
2018-09-19T15:04:59.736Z,7.55
2018-09-19T15:07:28.960Z,8.00
2018-09-19T15:09:58.156Z,10.45
2018-09-19T15:12:27.344Z,6.92
2018-09-19T15:14:56.643Z,7.08
2018-09-19T15:17:25.812Z,6.15
2018-09-19T15:19:55.041Z,6.55
2018-09-19T15:22:24.236Z,6.97
2018-09-19T15:24:54.211Z,8.00
2018-09-19T15:27:23.512Z,6.67
2018-09-19T15:29:52.676Z,6.55
2018-09-19T15:32:21.897Z,8.18
2018-09-19T15:34:51.065Z,10.23
2018-09-19T15:37:20.239Z,6.40
2018-09-19T15:39:49.416Z,6.00
2018-09-19T15:42:18.599Z,7.42
2018-09-19T15:44:47.824Z,6.78
2018-09-19T15:47:18.286Z,8.85
2018-09-19T15:49:47.531Z,7.55
2018-09-19T15:52:16.805Z,7.28
2018-09-19T15:54:45.993Z,6.45
2018-09-19T15:57:15.246Z,10.38
2018-09-19T15:59:44.657Z,6.87
2018-09-19T16:02:13.886Z,8.83
2018-09-19T16:04:43.169Z,6.35
2018-09-19T16:07:12.536Z,10.88
2018-09-19T16:09:41.715Z,10.00
2018-09-19T16:12:10.954Z,7.17
2018-09-19T16:14:40.252Z,8.10
2018-09-19T16:17:09.473Z,7.90
2018-09-19T16:19:38.686Z,8.53
2018-09-19T16:22:07.881Z,10.72
2018-09-19T16:24:37.110Z,11.48
2018-09-19T16:27:06.717Z,10.00
2018-09-19T16:29:35.909Z,10.38
2018-09-19T16:32:05.098Z,10.95
2018-09-19T16:34:34.293Z,7.97
2018-09-19T16:37:03.524Z,7.45
2018-09-19T16:39:33.081Z,9.98
2018-09-19T16:42:02.340Z,11.70
2018-09-19T16:44:31.557Z,14.58
2018-09-19T16:47:01.131Z,11.95
2018-09-19T16:49:30.716Z,17.37
2018-09-19T16:52:00.136Z,24.02
2018-09-19T16:54:29.308Z,20.70
2018-09-19T16:56:58.713Z,19.48
2018-09-19T16:59:27.972Z,13.38
2018-09-19T17:01:57.197Z,19.23
2018-09-19T17:04:26.480Z,17.15
2018-09-19T17:06:55.682Z,16.70
2018-09-19T17:09:24.856Z,18.82
2018-09-19T17:11:54.043Z,19.02
2018-09-19T17:14:23.235Z,17.85
2018-09-19T17:16:52.521Z,19.27
2018-09-19T17:19:21.713Z,16.80
2018-09-19T17:21:50.900Z,20.75
2018-09-19T17:24:20.132Z,21.77
2018-09-19T17:26:49.474Z,23.55
2018-09-19T17:29:19.269Z,17.50
2018-09-19T17:31:48.644Z,23.38
2018-09-19T17:34:17.916Z,18.27
2018-09-19T17:36:47.171Z,16.87
2018-09-19T17:39:16.377Z,18.60
2018-09-19T17:41:45.605Z,32.98
2018-09-19T17:44:15.176Z,21.57
2018-09-19T17:46:44.372Z,22.98
2018-09-19T17:49:13.610Z,15.18
2018-09-19T17:51:42.831Z,17.85
2018-09-19T17:54:12.837Z,20.82
2018-09-19T17:56:42.098Z,22.90
2018-09-19T17:59:11.303Z,19.35
2018-09-19T18:01:40.511Z,24.37
2018-09-19T18:04:09.725Z,24.92
2018-09-19T18:06:39.313Z,30.75
2018-09-19T18:09:08.384Z,20.87
2018-09-19T18:11:37.062Z,28.93
2018-09-19T18:14:05.832Z,25.20
2018-09-19T18:16:34.423Z,21.10
2018-09-19T18:19:03.101Z,19.53
2018-09-19T18:21:31.713Z,19.00
2018-09-19T18:24:00.995Z,19.40
2018-09-19T18:26:30.183Z,19.30
2018-09-19T18:28:59.425Z,19.07
2018-09-19T18:31:28.691Z,23.30
2018-09-19T18:34:05.183Z,24.00
2018-09-19T18:36:34.410Z,22.27
2018-09-19T18:39:03.986Z,25.00
2018-09-19T18:41:33.173Z,20.17
2018-09-19T18:44:02.399Z,24.23
2018-09-19T18:46:31.846Z,26.17
2018-09-19T18:49:01.310Z,24.65
2018-09-19T18:51:30.561Z,25.10
2018-09-19T18:53:59.831Z,24.72
2018-09-19T18:56:29.022Z,28.52
2018-09-19T18:58:58.284Z,27.62
2018-09-19T19:01:27.715Z,26.77
2018-09-19T19:03:56.935Z,31.57
2018-09-19T19:06:27.016Z,36.25
2018-09-19T19:08:56.256Z,36.65
2018-09-19T19:11:25.564Z,30.88
2018-09-19T19:13:54.963Z,31.12
2018-09-19T19:16:24.217Z,32.88
2018-09-19T19:18:53.946Z,30.57
2018-09-19T19:21:23.201Z,33.38
2018-09-19T19:23:52.566Z,31.50
2018-09-19T19:26:21.838Z,26.30
2018-09-19T19:28:51.069Z,27.22
2018-09-19T19:31:20.316Z,24.98
2018-09-19T19:33:49.742Z,20.17
2018-09-19T19:36:18.991Z,26.40
2018-09-19T19:38:48.300Z,24.10
2018-09-19T19:41:17.523Z,27.23
2018-09-19T19:43:46.788Z,23.87
2018-09-19T19:46:16.179Z,27.45
2018-09-19T19:48:45.449Z,27.65
2018-09-19T19:51:14.207Z,26.53
2018-09-19T19:53:42.854Z,24.70
2018-09-19T19:56:11.605Z,22.73
2018-09-19T19:58:40.259Z,26.43
2018-09-19T20:01:08.917Z,24.33
2018-09-19T20:03:37.639Z,29.83
2018-09-19T20:06:06.743Z,37.47
2018-09-19T20:08:35.443Z,41.10
2018-09-19T20:11:04.109Z,44.23
2018-09-19T20:13:32.859Z,38.93
2018-09-19T20:16:01.535Z,38.13
2018-09-19T20:18:30.263Z,41.13
2018-09-19T20:20:58.975Z,38.60
2018-09-19T20:23:27.845Z,39.67
2018-09-19T20:25:56.525Z,42.97
2018-09-19T20:28:25.226Z,41.33
2018-09-19T20:30:54.909Z,33.10
2018-09-19T20:33:23.572Z,34.40
2018-09-19T20:35:52.296Z,29.47
2018-09-19T20:38:21.217Z,28.70
2018-09-19T20:40:49.886Z,30.33
2018-09-19T20:43:18.541Z,28.60
2018-09-19T20:45:57.020Z,35.40
2018-09-19T20:48:33.062Z,30.10
2018-09-19T20:51:03.238Z,32.33
2018-09-19T20:53:31.908Z,27.87
2018-09-19T20:56:00.582Z,34.47
2018-09-19T20:58:29.271Z,30.13
2018-09-19T21:00:58.270Z,32.83
2018-09-19T21:03:26.980Z,35.10
2018-09-19T21:05:55.669Z,33.87
2018-09-19T21:08:24.331Z,32.30
2018-09-19T21:10:53.078Z,30.30
2018-09-19T21:13:21.917Z,29.67
2018-09-19T21:15:50.669Z,29.63
2018-09-19T21:18:19.389Z,29.57
2018-09-19T21:20:48.076Z,29.33
2018-09-19T21:23:16.790Z,30.67
2018-09-19T21:25:45.722Z,33.87
2018-09-19T21:28:14.430Z,34.40
2018-09-19T21:30:43.287Z,31.13
2018-09-19T21:33:11.936Z,31.03
2018-09-19T21:35:40.609Z,31.13
2018-09-19T21:38:09.338Z,31.37
2018-09-19T21:40:38.642Z,32.87
2018-09-19T21:43:07.502Z,28.37
2018-09-19T21:45:36.493Z,33.27
2018-09-19T21:48:05.281Z,29.47
2018-09-19T21:50:34.301Z,37.83
2018-09-19T21:53:02.977Z,38.17
2018-09-19T21:55:31.629Z,36.37
2018-09-19T21:58:00.359Z,37.43
2018-09-19T22:00:29.852Z,37.27
2018-09-19T22:02:59.014Z,38.00
2018-09-19T22:05:28.179Z,44.23
2018-09-19T22:07:56.918Z,38.80
2018-09-19T22:10:25.648Z,47.13
2018-09-19T22:12:55.181Z,43.93
2018-09-19T22:15:24.183Z,40.13
2018-09-19T22:17:54.613Z,39.27
2018-09-19T22:20:23.348Z,41.07
2018-09-19T22:22:52.195Z,36.90
2018-09-19T22:25:21.941Z,42.10
2018-09-19T22:27:50.763Z,39.90
2018-09-19T22:30:19.415Z,38.80
2018-09-19T22:32:48.151Z,36.97
2018-09-19T22:35:16.785Z,42.00
2018-09-19T22:37:45.469Z,44.63
2018-09-19T22:40:14.244Z,43.80
2018-09-19T22:42:42.899Z,44.27
2018-09-19T22:45:11.689Z,39.33
2018-09-19T22:47:40.554Z,43.93
2018-09-19T22:50:09.247Z,38.43
2018-09-19T22:52:37.930Z,35.87
2018-09-19T22:55:06.691Z,32.93
2018-09-19T22:57:35.367Z,35.77
2018-09-19T23:00:04.345Z,34.00
2018-09-19T23:02:32.977Z,33.07
2018-09-19T23:05:01.689Z,36.63
2018-09-19T23:07:30.356Z,37.60
2018-09-19T23:09:58.994Z,33.27
2018-09-19T23:12:27.687Z,33.43
2018-09-19T23:14:56.342Z,36.27
2018-09-19T23:17:25.034Z,34.17
2018-09-19T23:19:53.740Z,33.77
2018-09-19T23:22:22.452Z,35.53
2018-09-19T23:24:51.142Z,38.37
2018-09-19T23:27:19.774Z,37.53
2018-09-19T23:29:48.608Z,36.73
2018-09-19T23:32:17.269Z,37.63
2018-09-19T23:34:45.958Z,37.17
2018-09-19T23:37:14.840Z,37.43
2018-09-19T23:39:43.485Z,41.53
2018-09-19T23:42:12.173Z,36.70
2018-09-19T23:44:41.057Z,40.33
2018-09-19T23:47:09.717Z,34.37
2018-09-19T23:49:38.379Z,39.43
2018-09-19T23:52:07.140Z,35.77
2018-09-19T23:54:36.432Z,41.43
2018-09-19T23:57:05.119Z,40.27
2018-09-19T23:59:33.837Z,41.00
